GDW weather

Gladwin Zettel Memorial Airport
Gladwin, Michigan, United States

Public forecast

Using degrees Fahrenheit for public forecast. Weather courtesy of forecast.io.

METAR (pilot weather report)

Closest report is Jack Barstow Airport, 20.7 nm (38.4 km) SSE. Retrieved 2019/09/19 20:35 UTC (0 seconds ago):

KIKW 192035Z AUTO 17004KT 10SM CLR 28/09 A3010 RMK AO2 T02840091

TAF (pilot weather forecast)

Closest forecast is MBS International Airport, 31.4 nm (58.1 km) SSE. Retrieved 2019/09/19 18:22 UTC (2 hours ago):

TAF KMBS 191720Z 1918/2018 17007KT P6SM SCT250 FM200000 16004KT P6SM BKN150 FM201400 20006KT P6SM SCT050 BKN250